createdAt,value
2019-01-13T00:01:10.468Z,4.63
2019-01-13T00:03:40.589Z,4.59
2019-01-13T00:06:11.002Z,4.61
2019-01-13T00:08:41.528Z,4.64
2019-01-13T00:11:11.905Z,4.60
2019-01-13T00:13:42.498Z,4.65
2019-01-13T00:16:12.884Z,4.64
2019-01-13T00:18:43.380Z,4.67
2019-01-13T00:21:13.742Z,4.67
2019-01-13T00:23:44.406Z,4.68
2019-01-13T00:26:14.806Z,4.70
2019-01-13T00:28:46.427Z,4.69
2019-01-13T00:31:16.585Z,4.70
2019-01-13T00:33:46.702Z,4.68
2019-01-13T00:36:17.297Z,4.72
2019-01-13T00:38:47.669Z,4.76
2019-01-13T00:41:18.185Z,4.78
2019-01-13T00:43:48.573Z,4.78
2019-01-13T00:46:18.683Z,4.81
2019-01-13T00:48:48.716Z,4.79
2019-01-13T00:51:19.101Z,4.81
2019-01-13T00:53:49.152Z,4.83
2019-01-13T00:56:19.366Z,4.92
2019-01-13T00:58:49.724Z,4.92
2019-01-13T01:01:20.259Z,4.91
2019-01-13T01:03:50.840Z,4.95
2019-01-13T01:06:21.453Z,4.92
2019-01-13T01:08:51.630Z,4.96
2019-01-13T01:11:22.562Z,5.00
2019-01-13T01:13:52.945Z,5.02
2019-01-13T01:16:23.474Z,4.96
2019-01-13T01:18:55.714Z,4.98
2019-01-13T01:21:26.213Z,5.00
2019-01-13T01:23:56.455Z,4.94
2019-01-13T01:26:26.763Z,4.94
2019-01-13T01:28:57.162Z,5.00
2019-01-13T01:31:27.287Z,5.00
2019-01-13T01:33:57.759Z,5.03
2019-01-13T01:36:28.343Z,5.00
2019-01-13T01:38:58.698Z,5.00
2019-01-13T01:41:29.627Z,5.00
2019-01-13T01:43:59.683Z,5.03
2019-01-13T01:46:30.076Z,4.95
2019-01-13T01:49:00.243Z,4.95
2019-01-13T01:51:30.537Z,4.93
2019-01-13T01:54:00.547Z,4.90
2019-01-13T01:56:30.759Z,4.90
2019-01-13T01:59:01.088Z,4.92
2019-01-13T02:01:31.211Z,4.90
2019-01-13T02:04:01.437Z,4.94
2019-01-13T02:06:31.544Z,4.90
2019-01-13T02:09:01.685Z,4.93
2019-01-13T02:11:32.232Z,4.88
2019-01-13T02:14:02.552Z,4.85
2019-01-13T02:16:32.822Z,4.90
2019-01-13T02:19:03.429Z,4.95
2019-01-13T02:21:33.628Z,4.95
2019-01-13T02:24:12.678Z,4.93
2019-01-13T02:26:43.172Z,4.95
2019-01-13T02:29:13.537Z,4.94
2019-01-13T02:31:43.724Z,4.95
2019-01-13T02:34:14.255Z,5.00
2019-01-13T02:36:44.531Z,4.96
2019-01-13T02:39:14.682Z,4.98
2019-01-13T02:41:45.188Z,5.00
2019-01-13T02:44:15.444Z,5.03
2019-01-13T02:46:45.608Z,5.03
2019-01-13T02:49:15.677Z,4.98
2019-01-13T02:51:46.106Z,5.01
2019-01-13T02:54:16.468Z,4.97
2019-01-13T02:56:46.801Z,5.00
2019-01-13T02:59:17.345Z,5.03
2019-01-13T03:04:23.414Z,5.10
2019-01-13T03:06:53.637Z,5.11
2019-01-13T03:09:42.787Z,5.11
2019-01-13T03:12:13.723Z,5.11
2019-01-13T03:14:44.125Z,5.10
2019-01-13T03:17:14.402Z,5.08
2019-01-13T03:19:44.468Z,5.10
2019-01-13T03:22:14.480Z,5.10
2019-01-13T03:24:44.780Z,5.17
2019-01-13T03:27:15.193Z,5.19
2019-01-13T03:29:46.648Z,5.12
2019-01-13T03:32:16.733Z,5.10
2019-01-13T03:34:47.124Z,5.11
2019-01-13T03:37:17.537Z,5.11
2019-01-13T03:39:47.726Z,5.15
2019-01-13T03:42:18.050Z,5.15
2019-01-13T03:45:00.571Z,5.10
2019-01-13T03:47:30.947Z,5.10
2019-01-13T03:50:01.165Z,5.07
2019-01-13T03:52:31.683Z,5.09
2019-01-13T03:55:02.658Z,5.06
2019-01-13T03:57:33.058Z,5.08
2019-01-13T04:00:23.175Z,5.02
2019-01-13T04:02:53.530Z,5.02
2019-01-13T04:05:23.886Z,5.02
2019-01-13T04:08:13.118Z,4.99
2019-01-13T04:10:43.733Z,4.99
2019-01-13T04:13:14.127Z,4.97
2019-01-13T04:16:04.198Z,4.95
2019-01-13T04:18:34.381Z,4.99
2019-01-13T04:21:04.574Z,4.99
2019-01-13T04:23:34.796Z,5.04
2019-01-13T04:26:05.445Z,4.99
2019-01-13T04:28:35.731Z,5.01
2019-01-13T04:31:06.472Z,5.00
2019-01-13T04:33:36.476Z,5.00
2019-01-13T04:36:06.720Z,5.00
2019-01-13T04:38:36.846Z,5.01
2019-01-13T04:41:07.436Z,5.04
2019-01-13T04:43:37.554Z,5.02
2019-01-13T04:46:07.931Z,5.02
2019-01-13T04:48:59.532Z,5.03
2019-01-13T04:51:29.660Z,5.03
2019-01-13T04:53:59.980Z,5.03
2019-01-13T04:56:30.300Z,5.03
2019-01-13T04:59:00.700Z,5.01
2019-01-13T05:01:34.829Z,5.00
2019-01-13T05:04:21.984Z,4.99
2019-01-13T05:06:52.325Z,4.99
2019-01-13T05:09:22.395Z,5.00
2019-01-13T05:11:52.487Z,5.01
2019-01-13T05:14:22.626Z,5.02
2019-01-13T05:16:52.867Z,5.00
2019-01-13T05:19:23.240Z,5.03
2019-01-13T05:21:53.571Z,5.01
2019-01-13T05:24:23.694Z,5.05
2019-01-13T05:26:54.320Z,5.08
2019-01-13T05:29:24.342Z,5.09
2019-01-13T05:31:54.459Z,5.07
2019-01-13T05:34:24.826Z,5.05
2019-01-13T05:36:55.251Z,5.08
2019-01-13T05:39:25.507Z,5.08
2019-01-13T05:41:56.092Z,5.11
2019-01-13T05:44:26.474Z,5.09
2019-01-13T05:46:56.703Z,5.08
2019-01-13T05:49:27.199Z,5.08
2019-01-13T05:51:57.407Z,4.93
2019-01-13T05:54:27.508Z,5.12
2019-01-13T05:56:57.753Z,5.13
2019-01-13T05:59:28.046Z,5.13
2019-01-13T06:01:58.665Z,5.14
2019-01-13T06:04:28.879Z,5.14
2019-01-13T06:07:20.698Z,5.18
2019-01-13T06:09:51.142Z,5.18
2019-01-13T06:12:21.571Z,5.15
2019-01-13T06:14:52.597Z,5.17
2019-01-13T06:17:22.679Z,5.15
2019-01-13T06:19:52.794Z,5.12
2019-01-13T06:22:23.380Z,5.13
2019-01-13T06:24:53.457Z,5.15
2019-01-13T06:27:23.567Z,5.13
2019-01-13T06:29:53.642Z,5.10
2019-01-13T06:32:25.351Z,5.12
2019-01-13T06:34:55.349Z,5.14
2019-01-13T06:37:25.379Z,5.05
2019-01-13T06:39:55.509Z,5.08
2019-01-13T06:42:25.570Z,5.04
2019-01-13T06:44:55.800Z,5.10
2019-01-13T06:47:26.295Z,5.09
2019-01-13T06:49:56.430Z,5.10
2019-01-13T06:52:26.471Z,5.08
2019-01-13T06:54:56.594Z,5.07
2019-01-13T06:57:27.198Z,5.03
2019-01-13T06:59:57.503Z,5.05
2019-01-13T07:02:27.822Z,5.06
2019-01-13T07:04:58.146Z,5.04
2019-01-13T07:07:29.532Z,4.99
2019-01-13T07:09:59.617Z,4.99
2019-01-13T07:12:30.101Z,4.99
2019-01-13T07:15:00.399Z,5.02
2019-01-13T07:17:30.523Z,5.07
2019-01-13T07:20:00.651Z,5.03
2019-01-13T07:22:30.659Z,5.06
2019-01-13T07:25:02.115Z,5.04
2019-01-13T07:27:32.260Z,5.03
2019-01-13T07:30:02.523Z,5.03
2019-01-13T07:32:32.742Z,5.06
2019-01-13T07:35:03.356Z,5.04
2019-01-13T07:37:33.460Z,5.02
2019-01-13T07:40:03.993Z,5.06
2019-01-13T07:42:34.305Z,5.06
2019-01-13T07:45:04.751Z,5.10
2019-01-13T07:47:54.130Z,5.10
2019-01-13T07:50:24.700Z,5.10
2019-01-13T07:52:55.164Z,5.14
2019-01-13T07:55:27.009Z,5.13
2019-01-13T07:58:16.249Z,5.19
2019-01-13T08:00:46.806Z,5.19
2019-01-13T08:03:17.253Z,5.21
2019-01-13T08:05:49.370Z,5.19
2019-01-13T08:08:20.854Z,5.20
2019-01-13T08:11:10.509Z,5.34
2019-01-13T08:13:40.697Z,5.34
2019-01-13T08:16:10.829Z,5.25
2019-01-13T08:19:00.699Z,5.28
2019-01-13T08:21:31.150Z,5.28
2019-01-13T08:24:01.288Z,5.31
2019-01-13T08:29:22.716Z,5.32
2019-01-13T08:31:53.108Z,5.32
2019-01-13T08:34:23.281Z,5.35
2019-01-13T08:36:54.191Z,5.36
2019-01-13T08:39:24.427Z,5.35
2019-01-13T08:41:54.622Z,5.33
2019-01-13T08:44:24.850Z,5.33
2019-01-13T08:47:14.172Z,5.39
2019-01-13T08:49:44.604Z,5.39
2019-01-13T08:52:14.742Z,5.41
2019-01-13T08:54:45.159Z,5.45
2019-01-13T08:57:35.699Z,5.51
2019-01-13T09:00:09.311Z,5.51
2019-01-13T09:02:39.742Z,5.53
2019-01-13T09:05:10.440Z,5.52
2019-01-13T09:07:41.835Z,5.57
2019-01-13T09:10:31.359Z,5.58
2019-01-13T09:13:01.838Z,5.58
2019-01-13T09:15:32.132Z,5.57
2019-01-13T09:18:40.251Z,5.62
2019-01-13T09:21:10.666Z,5.62
2019-01-13T09:23:41.655Z,5.68
2019-01-13T09:26:12.062Z,5.69
2019-01-13T09:28:42.437Z,5.72
2019-01-13T09:31:12.660Z,5.76
2019-01-13T09:33:42.974Z,5.77
2019-01-13T09:36:13.467Z,5.84
2019-01-13T09:38:43.717Z,5.83
2019-01-13T09:41:14.837Z,5.89
2019-01-13T09:43:45.384Z,5.91
2019-01-13T09:46:15.587Z,5.88
2019-01-13T09:48:45.961Z,5.87
2019-01-13T09:51:16.391Z,5.89
2019-01-13T09:53:46.457Z,5.91
2019-01-13T09:56:16.770Z,5.92
2019-01-13T09:58:47.591Z,5.95
2019-01-13T10:01:17.691Z,5.97
2019-01-13T10:03:48.207Z,6.09
2019-01-13T10:06:18.372Z,6.28
2019-01-13T10:08:48.515Z,6.28
2019-01-13T10:11:18.850Z,6.29
2019-01-13T10:13:49.389Z,6.59
2019-01-13T10:16:19.470Z,6.46
2019-01-13T10:18:49.792Z,6.43
2019-01-13T10:21:20.429Z,6.46
2019-01-13T10:23:50.542Z,6.46
2019-01-13T10:26:20.853Z,6.49
2019-01-13T10:28:51.205Z,6.53
2019-01-13T10:31:21.513Z,6.51
2019-01-13T10:33:51.936Z,6.55
2019-01-13T10:36:41.336Z,6.51
2019-01-13T10:39:11.734Z,6.51
2019-01-13T10:41:52.831Z,6.55
2019-01-13T10:44:23.310Z,6.52
2019-01-13T10:46:53.565Z,6.50
2019-01-13T10:49:23.767Z,6.40
2019-01-13T10:51:54.826Z,6.35
2019-01-13T10:54:25.314Z,6.41
2019-01-13T10:56:55.528Z,6.41
2019-01-13T10:59:25.548Z,6.44
2019-01-13T11:01:55.897Z,6.39
2019-01-13T11:04:26.181Z,6.41
2019-01-13T11:06:56.653Z,6.40
2019-01-13T11:09:27.623Z,6.45
2019-01-13T11:11:57.841Z,6.54
2019-01-13T11:14:28.376Z,6.53
2019-01-13T11:16:58.694Z,6.55
2019-01-13T11:19:29.039Z,6.52
2019-01-13T11:21:59.448Z,6.57
2019-01-13T11:24:29.638Z,6.59
2019-01-13T11:26:59.811Z,6.59
2019-01-13T11:29:32.813Z,6.60
2019-01-13T11:32:02.473Z,6.66
2019-01-13T11:34:32.495Z,6.66
2019-01-13T11:37:03.040Z,6.67
2019-01-13T11:39:33.569Z,6.65
2019-01-13T11:42:03.784Z,6.69
2019-01-13T11:44:34.226Z,6.68
2019-01-13T11:47:05.624Z,6.75
2019-01-13T11:49:35.725Z,6.78
2019-01-13T11:52:06.124Z,6.73
2019-01-13T11:54:36.583Z,6.80
2019-01-13T11:57:06.784Z,6.81
2019-01-13T11:59:37.246Z,6.78
2019-01-13T12:02:07.693Z,6.84
2019-01-13T12:04:38.091Z,6.89
2019-01-13T12:07:08.237Z,6.88
2019-01-13T12:09:38.552Z,6.95
2019-01-13T12:12:08.679Z,6.89
2019-01-13T12:14:41.265Z,6.88
2019-01-13T12:17:11.825Z,6.92
2019-01-13T12:19:42.497Z,6.88
2019-01-13T12:22:12.518Z,6.90
2019-01-13T12:24:42.747Z,6.93
2019-01-13T12:27:12.805Z,6.99
2019-01-13T12:29:43.162Z,6.96
2019-01-13T12:32:13.603Z,6.96
2019-01-13T12:34:43.732Z,6.92
2019-01-13T12:37:14.261Z,6.97
2019-01-13T12:39:44.369Z,6.90
2019-01-13T12:42:14.740Z,6.87
2019-01-13T12:44:45.331Z,6.78
2019-01-13T12:47:15.527Z,6.72
2019-01-13T12:49:45.677Z,6.71
2019-01-13T12:52:16.081Z,6.68
2019-01-13T12:54:46.767Z,6.67
2019-01-13T12:57:17.207Z,6.71
2019-01-13T12:59:47.219Z,6.68
2019-01-13T13:02:17.514Z,6.61
2019-01-13T13:04:47.529Z,6.58
2019-01-13T13:07:17.790Z,6.58
2019-01-13T13:09:49.498Z,6.57
2019-01-13T13:12:19.716Z,6.57
2019-01-13T13:14:50.154Z,6.57
2019-01-13T13:17:59.841Z,6.52
2019-01-13T13:20:30.893Z,6.53
2019-01-13T13:23:01.444Z,6.53
2019-01-13T13:25:32.281Z,6.58
2019-01-13T13:28:03.757Z,6.58
2019-01-13T13:30:33.990Z,6.54
2019-01-13T13:33:04.337Z,6.54
2019-01-13T13:35:39.643Z,6.57
2019-01-13T13:38:06.646Z,6.54
2019-01-13T13:40:37.807Z,6.53
2019-01-13T13:43:46.317Z,6.47
2019-01-13T13:46:16.666Z,6.47
2019-01-13T13:49:06.015Z,6.44
2019-01-13T13:51:36.382Z,6.44
2019-01-13T13:54:06.743Z,6.41
2019-01-13T13:56:37.567Z,6.38
2019-01-13T13:59:07.796Z,6.41
2019-01-13T14:01:38.352Z,6.37
2019-01-13T14:04:08.586Z,6.41
2019-01-13T14:06:38.794Z,6.38
2019-01-13T14:09:10.464Z,6.36
2019-01-13T14:11:40.609Z,6.34
2019-01-13T14:14:11.537Z,6.37
2019-01-13T14:16:41.634Z,6.35
2019-01-13T14:19:11.926Z,6.34
2019-01-13T14:21:42.443Z,6.32
2019-01-13T14:24:12.536Z,6.30
2019-01-13T14:26:42.728Z,6.28
2019-01-13T14:29:13.016Z,6.27
2019-01-13T14:31:43.619Z,6.21
2019-01-13T14:34:13.653Z,6.22
2019-01-13T14:36:43.783Z,6.19
2019-01-13T14:39:14.189Z,6.19
2019-01-13T14:41:44.635Z,6.25
2019-01-13T14:44:14.830Z,6.20
2019-01-13T14:46:45.267Z,6.13
2019-01-13T14:49:15.537Z,6.15
2019-01-13T14:51:45.680Z,6.10
2019-01-13T14:54:16.175Z,6.05
2019-01-13T14:56:46.255Z,6.08
2019-01-13T14:59:16.538Z,6.11
2019-01-13T15:01:46.789Z,6.06
2019-01-13T15:04:36.125Z,6.03
2019-01-13T15:07:06.517Z,6.03
2019-01-13T15:09:36.761Z,6.00
2019-01-13T15:12:07.706Z,6.01
2019-01-13T15:14:37.881Z,5.98
2019-01-13T15:17:08.415Z,5.96
2019-01-13T15:19:39.756Z,6.04
2019-01-13T15:22:29.049Z,5.98
2019-01-13T15:24:59.631Z,6.03
2019-01-13T15:27:29.761Z,6.03
2019-01-13T15:30:00.336Z,5.99
2019-01-13T15:33:10.745Z,5.96
2019-01-13T15:36:01.258Z,5.96
2019-01-13T15:38:33.345Z,5.89
2019-01-13T15:41:24.000Z,5.97
2019-01-13T15:43:57.050Z,5.92
2019-01-13T15:46:29.603Z,5.88
2019-01-13T15:58:06.624Z,5.88
2019-01-13T16:00:38.307Z,5.88
2019-01-13T16:03:11.474Z,5.92
2019-01-13T16:05:41.970Z,5.86
2019-01-13T16:08:12.241Z,5.74
2019-01-13T16:10:42.388Z,5.73
2019-01-13T16:13:12.788Z,5.73
2019-01-13T16:15:43.372Z,5.76
2019-01-13T16:18:13.496Z,5.77
2019-01-13T16:20:43.979Z,5.74
2019-01-13T16:23:14.389Z,5.80
2019-01-13T16:25:46.840Z,5.75
2019-01-13T16:28:18.773Z,5.77
2019-01-13T16:30:49.360Z,5.76
2019-01-13T16:33:19.529Z,5.77
2019-01-13T16:35:49.861Z,5.82
2019-01-13T16:38:20.594Z,5.78
2019-01-13T16:40:50.702Z,5.83
2019-01-13T16:43:21.102Z,5.82
2019-01-13T16:45:51.775Z,5.77
2019-01-13T16:48:22.242Z,5.78
2019-01-13T16:50:52.526Z,5.77
2019-01-13T16:53:22.731Z,5.74
2019-01-13T16:55:53.001Z,5.74
2019-01-13T16:58:23.698Z,5.74
2019-01-13T17:00:53.987Z,5.76
2019-01-13T17:03:24.768Z,5.74
2019-01-13T17:05:55.279Z,5.72
2019-01-13T17:08:25.535Z,5.72
2019-01-13T17:10:55.706Z,5.66
2019-01-13T17:13:26.141Z,5.69
2019-01-13T17:15:56.555Z,5.69
2019-01-13T17:18:26.745Z,5.71
2019-01-13T17:20:57.784Z,5.71
2019-01-13T17:23:28.253Z,5.77
2019-01-13T17:25:58.554Z,5.70
2019-01-13T17:28:28.719Z,5.81
2019-01-13T17:30:59.146Z,5.74
2019-01-13T17:33:29.523Z,5.75
2019-01-13T17:35:59.849Z,5.72
2019-01-13T17:38:30.264Z,5.80
2019-01-13T17:41:00.302Z,5.75
2019-01-13T17:43:30.527Z,5.76
2019-01-13T17:46:00.674Z,5.72
2019-01-13T17:48:30.883Z,5.72
2019-01-13T17:51:01.707Z,5.76
2019-01-13T17:53:32.110Z,5.76
2019-01-13T17:56:22.599Z,5.71
2019-01-13T17:58:53.552Z,5.71
2019-01-13T18:01:44.824Z,5.81
2019-01-13T18:04:15.395Z,5.80
2019-01-13T18:06:45.532Z,5.79
2019-01-13T18:09:15.698Z,5.82
2019-01-13T18:11:46.120Z,5.82
2019-01-13T18:14:16.542Z,5.90
2019-01-13T18:16:46.757Z,5.95
2019-01-13T18:19:17.261Z,5.91
2019-01-13T18:21:47.366Z,5.87
2019-01-13T18:24:17.570Z,5.95
2019-01-13T18:26:47.740Z,6.03
2019-01-13T18:29:18.100Z,6.01
2019-01-13T18:31:48.352Z,6.01
2019-01-13T18:34:18.433Z,6.00
2019-01-13T18:36:49.788Z,6.00
2019-01-13T18:39:20.228Z,6.00
2019-01-13T18:41:50.282Z,6.02
2019-01-13T18:44:20.592Z,5.99
2019-01-13T18:46:50.719Z,5.99
2019-01-13T18:49:21.087Z,6.03
2019-01-13T18:51:51.225Z,6.01
2019-01-13T18:54:21.350Z,5.95
2019-01-13T18:56:51.479Z,6.03
2019-01-13T18:59:21.535Z,6.03
2019-01-13T19:04:27.831Z,6.05
2019-01-13T19:06:58.252Z,6.01
2019-01-13T19:09:28.648Z,6.05
2019-01-13T19:11:58.703Z,6.17
2019-01-13T19:14:50.755Z,6.50
2019-01-13T19:17:32.531Z,7.00
2019-01-13T19:20:23.353Z,7.00
2019-01-13T19:22:56.370Z,7.13
2019-01-13T19:25:29.887Z,7.13
2019-01-13T19:28:00.370Z,7.27
2019-01-13T19:30:30.640Z,7.42
2019-01-13T19:33:01.024Z,7.42
2019-01-13T19:35:31.729Z,7.34
2019-01-13T19:38:02.196Z,7.27
2019-01-13T19:40:32.471Z,7.23
2019-01-13T19:43:02.879Z,7.26
2019-01-13T19:45:33.451Z,7.19
2019-01-13T19:48:03.568Z,7.09
2019-01-13T19:50:33.858Z,6.91
2019-01-13T19:53:23.679Z,6.78
2019-01-13T19:55:54.300Z,6.78
2019-01-13T19:58:24.620Z,6.86
2019-01-13T20:00:54.894Z,6.91
2019-01-13T20:03:25.418Z,6.85
2019-01-13T20:05:55.736Z,6.79
2019-01-13T20:08:26.165Z,6.73
2019-01-13T20:10:57.577Z,6.71
2019-01-13T20:13:27.749Z,6.78
2019-01-13T20:16:00.755Z,6.98
2019-01-13T20:18:31.236Z,7.07
2019-01-13T20:21:01.619Z,6.96
2019-01-13T20:23:31.803Z,6.92
2019-01-13T20:26:02.484Z,6.88
2019-01-13T20:28:32.745Z,6.84
2019-01-13T20:31:05.357Z,6.78
2019-01-13T20:33:35.926Z,6.73
2019-01-13T20:36:25.227Z,6.71
2019-01-13T20:38:55.624Z,6.71
2019-01-13T20:41:25.775Z,6.73
2019-01-13T20:43:56.545Z,6.75
2019-01-13T20:46:27.745Z,6.69
2019-01-13T20:48:58.209Z,6.62
2019-01-13T20:51:28.566Z,6.60
2019-01-13T20:53:58.855Z,6.49
2019-01-13T20:59:39.358Z,6.37
2019-01-13T21:02:09.642Z,6.28
2019-01-13T21:04:40.459Z,6.24
2019-01-13T21:07:29.893Z,6.20
2019-01-13T21:10:00.413Z,5.98
2019-01-13T21:12:30.609Z,5.98
2019-01-13T21:15:00.795Z,6.17
2019-01-13T21:17:31.265Z,6.13
2019-01-13T21:20:20.885Z,6.06
2019-01-13T21:23:11.679Z,6.06
2019-01-13T21:25:42.049Z,6.19
2019-01-13T21:28:31.588Z,6.21
2019-01-13T21:31:01.766Z,6.21
2019-01-13T21:33:32.334Z,6.14
2019-01-13T21:36:02.916Z,6.17
2019-01-13T21:38:33.400Z,6.22
2019-01-13T21:41:03.806Z,6.20
2019-01-13T21:43:53.339Z,6.19
2019-01-13T21:46:23.458Z,6.19
2019-01-13T21:48:53.597Z,6.10
2019-01-13T21:51:23.914Z,5.96
2019-01-13T21:54:13.267Z,6.02
2019-01-13T21:56:43.743Z,6.02
2019-01-13T21:59:14.359Z,6.01
2019-01-13T22:01:45.689Z,6.03
2019-01-13T22:04:16.179Z,6.02
2019-01-13T22:06:46.431Z,6.07
2019-01-13T22:09:16.659Z,5.97
2019-01-13T22:11:47.279Z,5.94
2019-01-13T22:14:17.368Z,5.92
2019-01-13T22:16:47.453Z,5.84
2019-01-13T22:19:18.673Z,5.83
2019-01-13T22:21:48.797Z,5.78
2019-01-13T22:24:19.284Z,5.79
2019-01-13T22:26:49.921Z,5.79
2019-01-13T22:29:20.372Z,5.77
2019-01-13T22:31:50.518Z,5.76
2019-01-13T22:34:20.756Z,5.83
2019-01-13T22:36:51.380Z,5.84
2019-01-13T22:39:21.394Z,5.86
2019-01-13T22:41:51.810Z,5.80
2019-01-13T22:44:22.313Z,5.77
2019-01-13T22:46:52.348Z,5.69
2019-01-13T22:49:22.614Z,5.75
2019-01-13T22:51:52.823Z,5.76
2019-01-13T22:54:23.523Z,5.82
2019-01-13T22:56:53.808Z,5.84
2019-01-13T22:59:24.242Z,5.84
2019-01-13T23:01:54.792Z,5.88
2019-01-13T23:04:25.322Z,5.90
2019-01-13T23:06:55.566Z,5.86
2019-01-13T23:09:25.680Z,5.89
2019-01-13T23:11:56.209Z,5.90
2019-01-13T23:14:26.385Z,5.90
2019-01-13T23:16:56.513Z,5.90
2019-01-13T23:19:27.012Z,5.93
2019-01-13T23:21:57.523Z,5.92
2019-01-13T23:24:27.577Z,5.92
2019-01-13T23:26:57.875Z,5.92
2019-01-13T23:29:29.579Z,5.90
2019-01-13T23:31:59.629Z,5.89
2019-01-13T23:34:29.850Z,5.90
2019-01-13T23:37:00.170Z,5.90
2019-01-13T23:39:30.216Z,5.87
2019-01-13T23:42:20.658Z,5.90
2019-01-13T23:44:50.866Z,5.84
2019-01-13T23:47:40.330Z,5.77
2019-01-13T23:50:10.806Z,5.77
2019-01-13T23:52:41.652Z,5.72
2019-01-13T23:55:12.490Z,5.73
2019-01-13T23:57:42.693Z,5.70
